sensor_id;sensor_type;location;lat;lon;timestamp;temperature;humidity
16321;DHT22;8269;50.990;4.494;2023-07-24T00:01:16;17.70;99.90
16321;DHT22;8269;50.990;4.494;2023-07-24T00:03:43;17.70;99.90
16321;DHT22;8269;50.990;4.494;2023-07-24T00:06:09;17.70;99.90
16321;DHT22;8269;50.990;4.494;2023-07-24T00:08:34;17.70;99.90
16321;DHT22;8269;50.990;4.494;2023-07-24T00:11:00;17.70;99.90
16321;DHT22;8269;50.990;4.494;2023-07-24T00:13:28;17.70;99.90
16321;DHT22;8269;50.990;4.494;2023-07-24T00:15:54;17.70;99.90
16321;DHT22;8269;50.990;4.494;2023-07-24T00:18:19;17.70;99.90
16321;DHT22;8269;50.990;4.494;2023-07-24T00:20:45;17.70;99.90
16321;DHT22;8269;50.990;4.494;2023-07-24T00:23:10;17.70;99.90
16321;DHT22;8269;50.990;4.494;2023-07-24T00:25:37;17.70;99.90
16321;DHT22;8269;50.990;4.494;2023-07-24T00:28:02;17.70;99.90
16321;DHT22;8269;50.990;4.494;2023-07-24T00:30:28;17.70;99.90
16321;DHT22;8269;50.990;4.494;2023-07-24T00:32:54;17.70;99.90
16321;DHT22;8269;50.990;4.494;2023-07-24T00:35:19;17.70;99.90
16321;DHT22;8269;50.990;4.494;2023-07-24T00:37:45;17.70;99.90
16321;DHT22;8269;50.990;4.494;2023-07-24T00:40:11;17.70;99.90
16321;DHT22;8269;50.990;4.494;2023-07-24T00:42:37;17.70;99.90
16321;DHT22;8269;50.990;4.494;2023-07-24T00:45:04;17.70;99.90
16321;DHT22;8269;50.990;4.494;2023-07-24T00:47:30;17.70;99.90
16321;DHT22;8269;50.990;4.494;2023-07-24T00:49:56;17.80;99.90
16321;DHT22;8269;50.990;4.494;2023-07-24T00:52:22;17.80;99.90
16321;DHT22;8269;50.990;4.494;2023-07-24T00:54:48;17.80;99.90
16321;DHT22;8269;50.990;4.494;2023-07-24T00:57:14;17.80;99.90
16321;DHT22;8269;50.990;4.494;2023-07-24T00:59:43;17.70;99.90
16321;DHT22;8269;50.990;4.494;2023-07-24T01:02:09;17.70;99.90
16321;DHT22;8269;50.990;4.494;2023-07-24T01:04:37;17.80;99.90
16321;DHT22;8269;50.990;4.494;2023-07-24T01:07:03;17.80;99.90
16321;DHT22;8269;50.990;4.494;2023-07-24T01:09:28;17.80;99.90
16321;DHT22;8269;50.990;4.494;2023-07-24T01:12:44;17.80;99.90
16321;DHT22;8269;50.990;4.494;2023-07-24T01:15:11;17.80;99.90
16321;DHT22;8269;50.990;4.494;2023-07-24T01:17:45;17.80;99.90
16321;DHT22;8269;50.990;4.494;2023-07-24T01:20:12;17.80;99.90
16321;DHT22;8269;50.990;4.494;2023-07-24T01:25:53;17.80;99.90
16321;DHT22;8269;50.990;4.494;2023-07-24T01:28:19;17.80;99.90
16321;DHT22;8269;50.990;4.494;2023-07-24T01:30:45;17.80;99.90
16321;DHT22;8269;50.990;4.494;2023-07-24T01:33:11;17.80;99.90
16321;DHT22;8269;50.990;4.494;2023-07-24T01:35:38;17.80;99.90
16321;DHT22;8269;50.990;4.494;2023-07-24T01:38:07;17.80;99.90
16321;DHT22;8269;50.990;4.494;2023-07-24T01:40:33;17.80;99.90
16321;DHT22;8269;50.990;4.494;2023-07-24T01:42:58;17.80;99.90
16321;DHT22;8269;50.990;4.494;2023-07-24T01:45:26;17.80;99.90
16321;DHT22;8269;50.990;4.494;2023-07-24T01:47:52;17.80;99.90
16321;DHT22;8269;50.990;4.494;2023-07-24T01:50:18;17.70;99.90
16321;DHT22;8269;50.990;4.494;2023-07-24T01:52:45;17.70;99.90
16321;DHT22;8269;50.990;4.494;2023-07-24T01:55:11;17.60;99.90
16321;DHT22;8269;50.990;4.494;2023-07-24T01:57:37;17.60;99.90
16321;DHT22;8269;50.990;4.494;2023-07-24T02:00:02;17.60;99.90
16321;DHT22;8269;50.990;4.494;2023-07-24T02:02:28;17.60;99.90
16321;DHT22;8269;50.990;4.494;2023-07-24T02:04:54;17.60;99.90
16321;DHT22;8269;50.990;4.494;2023-07-24T02:07:19;17.60;99.90
16321;DHT22;8269;50.990;4.494;2023-07-24T02:09:45;17.60;99.90
16321;DHT22;8269;50.990;4.494;2023-07-24T02:12:10;17.60;99.90
16321;DHT22;8269;50.990;4.494;2023-07-24T02:14:36;17.60;99.90
16321;DHT22;8269;50.990;4.494;2023-07-24T02:17:02;17.60;99.90
16321;DHT22;8269;50.990;4.494;2023-07-24T02:19:32;17.60;99.90
16321;DHT22;8269;50.990;4.494;2023-07-24T02:21:58;17.50;99.90
16321;DHT22;8269;50.990;4.494;2023-07-24T02:24:23;17.60;99.90
16321;DHT22;8269;50.990;4.494;2023-07-24T02:26:50;17.60;99.90
16321;DHT22;8269;50.990;4.494;2023-07-24T02:29:16;17.60;99.90
16321;DHT22;8269;50.990;4.494;2023-07-24T02:31:41;17.60;99.90
16321;DHT22;8269;50.990;4.494;2023-07-24T02:34:08;17.50;99.90
16321;DHT22;8269;50.990;4.494;2023-07-24T02:36:34;17.40;99.90
16321;DHT22;8269;50.990;4.494;2023-07-24T02:39:00;17.40;99.90
16321;DHT22;8269;50.990;4.494;2023-07-24T02:41:50;17.30;99.90
16321;DHT22;8269;50.990;4.494;2023-07-24T02:44:15;17.30;99.90
16321;DHT22;8269;50.990;4.494;2023-07-24T02:46:42;17.30;99.90
16321;DHT22;8269;50.990;4.494;2023-07-24T02:49:08;17.30;99.90
16321;DHT22;8269;50.990;4.494;2023-07-24T02:51:33;17.30;99.90
16321;DHT22;8269;50.990;4.494;2023-07-24T02:54:04;17.30;99.90
16321;DHT22;8269;50.990;4.494;2023-07-24T02:56:31;17.20;99.90
16321;DHT22;8269;50.990;4.494;2023-07-24T02:58:57;17.20;99.90
16321;DHT22;8269;50.990;4.494;2023-07-24T03:01:23;17.20;99.90
16321;DHT22;8269;50.990;4.494;2023-07-24T03:03:50;17.20;99.90
16321;DHT22;8269;50.990;4.494;2023-07-24T03:06:15;17.20;99.90
16321;DHT22;8269;50.990;4.494;2023-07-24T03:08:42;17.20;99.90
16321;DHT22;8269;50.990;4.494;2023-07-24T03:11:08;17.20;99.90
16321;DHT22;8269;50.990;4.494;2023-07-24T03:13:33;17.20;99.90
16321;DHT22;8269;50.990;4.494;2023-07-24T03:15:59;17.20;99.90
16321;DHT22;8269;50.990;4.494;2023-07-24T03:18:26;17.10;99.90
16321;DHT22;8269;50.990;4.494;2023-07-24T03:20:52;17.10;99.90
16321;DHT22;8269;50.990;4.494;2023-07-24T03:23:18;17.00;99.90
16321;DHT22;8269;50.990;4.494;2023-07-24T03:25:43;17.00;99.90
16321;DHT22;8269;50.990;4.494;2023-07-24T03:28:09;16.80;99.90
16321;DHT22;8269;50.990;4.494;2023-07-24T03:30:35;16.80;99.90
16321;DHT22;8269;50.990;4.494;2023-07-24T03:33:01;16.80;99.90
16321;DHT22;8269;50.990;4.494;2023-07-24T03:35:27;16.70;99.90
16321;DHT22;8269;50.990;4.494;2023-07-24T03:37:52;16.70;99.90
16321;DHT22;8269;50.990;4.494;2023-07-24T03:40:19;16.60;99.90
16321;DHT22;8269;50.990;4.494;2023-07-24T03:42:45;16.60;99.90
16321;DHT22;8269;50.990;4.494;2023-07-24T03:45:10;16.60;99.90
16321;DHT22;8269;50.990;4.494;2023-07-24T03:47:36;16.60;99.90
16321;DHT22;8269;50.990;4.494;2023-07-24T03:50:02;16.60;99.90
16321;DHT22;8269;50.990;4.494;2023-07-24T03:52:27;16.60;99.90
16321;DHT22;8269;50.990;4.494;2023-07-24T03:54:53;16.50;99.90
16321;DHT22;8269;50.990;4.494;2023-07-24T03:57:19;16.50;99.90
16321;DHT22;8269;50.990;4.494;2023-07-24T03:59:44;16.50;99.90
16321;DHT22;8269;50.990;4.494;2023-07-24T04:02:11;16.60;99.90
16321;DHT22;8269;50.990;4.494;2023-07-24T04:04:37;16.60;99.90
16321;DHT22;8269;50.990;4.494;2023-07-24T04:07:05;16.60;99.90
16321;DHT22;8269;50.990;4.494;2023-07-24T04:09:31;16.60;99.90
16321;DHT22;8269;50.990;4.494;2023-07-24T04:11:56;16.70;99.90
16321;DHT22;8269;50.990;4.494;2023-07-24T04:14:22;16.70;99.90
16321;DHT22;8269;50.990;4.494;2023-07-24T04:16:48;16.70;99.90
16321;DHT22;8269;50.990;4.494;2023-07-24T04:19:14;16.70;99.90
16321;DHT22;8269;50.990;4.494;2023-07-24T04:21:41;16.70;99.90
16321;DHT22;8269;50.990;4.494;2023-07-24T04:24:07;16.70;99.90
16321;DHT22;8269;50.990;4.494;2023-07-24T04:26:32;16.60;99.90
16321;DHT22;8269;50.990;4.494;2023-07-24T04:28:58;16.60;99.90
16321;DHT22;8269;50.990;4.494;2023-07-24T04:31:23;16.50;99.90
16321;DHT22;8269;50.990;4.494;2023-07-24T04:33:49;16.50;99.90
16321;DHT22;8269;50.990;4.494;2023-07-24T04:36:15;16.40;99.90
16321;DHT22;8269;50.990;4.494;2023-07-24T04:38:40;16.50;99.90
16321;DHT22;8269;50.990;4.494;2023-07-24T04:41:06;16.50;99.90
16321;DHT22;8269;50.990;4.494;2023-07-24T04:43:31;16.50;99.90
16321;DHT22;8269;50.990;4.494;2023-07-24T04:45:57;16.60;99.90
16321;DHT22;8269;50.990;4.494;2023-07-24T04:48:23;16.60;99.90
16321;DHT22;8269;50.990;4.494;2023-07-24T04:50:55;16.60;99.90
16321;DHT22;8269;50.990;4.494;2023-07-24T04:53:21;16.60;99.90
16321;DHT22;8269;50.990;4.494;2023-07-24T04:55:47;16.60;99.90
16321;DHT22;8269;50.990;4.494;2023-07-24T04:58:13;16.60;99.90
16321;DHT22;8269;50.990;4.494;2023-07-24T05:00:39;16.60;99.90
16321;DHT22;8269;50.990;4.494;2023-07-24T05:03:04;16.70;99.90
16321;DHT22;8269;50.990;4.494;2023-07-24T05:05:33;16.70;99.90
16321;DHT22;8269;50.990;4.494;2023-07-24T05:08:00;16.70;99.90
16321;DHT22;8269;50.990;4.494;2023-07-24T05:10:27;16.70;99.90
16321;DHT22;8269;50.990;4.494;2023-07-24T05:12:52;16.70;99.90
16321;DHT22;8269;50.990;4.494;2023-07-24T05:15:22;16.80;99.90
16321;DHT22;8269;50.990;4.494;2023-07-24T05:17:47;16.80;99.90
16321;DHT22;8269;50.990;4.494;2023-07-24T05:20:13;16.80;99.90
16321;DHT22;8269;50.990;4.494;2023-07-24T05:22:39;16.80;99.90
16321;DHT22;8269;50.990;4.494;2023-07-24T05:25:04;16.90;99.90
16321;DHT22;8269;50.990;4.494;2023-07-24T05:27:30;16.90;99.90
16321;DHT22;8269;50.990;4.494;2023-07-24T05:29:56;17.00;99.90
16321;DHT22;8269;50.990;4.494;2023-07-24T05:32:22;17.10;99.90
16321;DHT22;8269;50.990;4.494;2023-07-24T05:34:47;17.30;99.90
16321;DHT22;8269;50.990;4.494;2023-07-24T05:37:14;17.40;99.90
16321;DHT22;8269;50.990;4.494;2023-07-24T05:39:40;17.50;99.90
16321;DHT22;8269;50.990;4.494;2023-07-24T05:42:06;17.80;99.90
16321;DHT22;8269;50.990;4.494;2023-07-24T05:44:31;18.10;99.90
16321;DHT22;8269;50.990;4.494;2023-07-24T05:46:58;18.20;99.90
16321;DHT22;8269;50.990;4.494;2023-07-24T05:49:24;18.10;99.90
16321;DHT22;8269;50.990;4.494;2023-07-24T05:51:50;18.00;99.90
16321;DHT22;8269;50.990;4.494;2023-07-24T05:54:19;18.10;99.90
16321;DHT22;8269;50.990;4.494;2023-07-24T05:56:45;18.20;99.90
16321;DHT22;8269;50.990;4.494;2023-07-24T05:59:13;18.30;99.90
16321;DHT22;8269;50.990;4.494;2023-07-24T06:01:39;18.30;99.90
16321;DHT22;8269;50.990;4.494;2023-07-24T06:04:05;18.20;99.90
16321;DHT22;8269;50.990;4.494;2023-07-24T06:06:44;18.10;99.90
16321;DHT22;8269;50.990;4.494;2023-07-24T06:09:13;18.30;99.90
16321;DHT22;8269;50.990;4.494;2023-07-24T06:11:40;18.20;99.90
16321;DHT22;8269;50.990;4.494;2023-07-24T06:14:06;18.20;99.90
16321;DHT22;8269;50.990;4.494;2023-07-24T06:16:32;18.10;99.90
16321;DHT22;8269;50.990;4.494;2023-07-24T06:19:04;18.00;99.90
16321;DHT22;8269;50.990;4.494;2023-07-24T06:21:30;18.00;99.90
16321;DHT22;8269;50.990;4.494;2023-07-24T06:23:55;17.90;99.90
16321;DHT22;8269;50.990;4.494;2023-07-24T06:26:21;17.90;99.90
16321;DHT22;8269;50.990;4.494;2023-07-24T06:28:47;17.90;99.90
16321;DHT22;8269;50.990;4.494;2023-07-24T06:31:20;17.90;99.90
16321;DHT22;8269;50.990;4.494;2023-07-24T06:33:46;17.90;99.90
16321;DHT22;8269;50.990;4.494;2023-07-24T06:36:13;17.90;99.90
16321;DHT22;8269;50.990;4.494;2023-07-24T06:38:40;17.90;99.90
16321;DHT22;8269;50.990;4.494;2023-07-24T06:41:07;17.90;99.90
16321;DHT22;8269;50.990;4.494;2023-07-24T06:43:33;18.20;99.90
16321;DHT22;8269;50.990;4.494;2023-07-24T06:45:59;18.40;99.90
16321;DHT22;8269;50.990;4.494;2023-07-24T06:48:24;18.70;99.90
16321;DHT22;8269;50.990;4.494;2023-07-24T06:50:50;18.90;99.90
16321;DHT22;8269;50.990;4.494;2023-07-24T06:53:16;18.90;99.90
16321;DHT22;8269;50.990;4.494;2023-07-24T06:55:41;18.80;99.90
16321;DHT22;8269;50.990;4.494;2023-07-24T06:58:07;18.60;99.90
16321;DHT22;8269;50.990;4.494;2023-07-24T07:00:33;18.60;99.90
16321;DHT22;8269;50.990;4.494;2023-07-24T07:03:00;18.60;99.90
16321;DHT22;8269;50.990;4.494;2023-07-24T07:05:25;18.70;99.90
16321;DHT22;8269;50.990;4.494;2023-07-24T07:07:51;18.90;99.90
16321;DHT22;8269;50.990;4.494;2023-07-24T07:10:18;19.20;99.90
16321;DHT22;8269;50.990;4.494;2023-07-24T07:12:43;19.60;99.90
16321;DHT22;8269;50.990;4.494;2023-07-24T07:15:09;19.60;99.90
16321;DHT22;8269;50.990;4.494;2023-07-24T07:17:35;19.60;99.90
16321;DHT22;8269;50.990;4.494;2023-07-24T07:20:01;19.40;99.90
16321;DHT22;8269;50.990;4.494;2023-07-24T07:22:26;19.40;99.90
16321;DHT22;8269;50.990;4.494;2023-07-24T07:24:52;19.30;99.90
16321;DHT22;8269;50.990;4.494;2023-07-24T07:27:17;19.20;99.90
16321;DHT22;8269;50.990;4.494;2023-07-24T07:29:46;19.10;99.90
16321;DHT22;8269;50.990;4.494;2023-07-24T07:32:13;19.00;99.90
16321;DHT22;8269;50.990;4.494;2023-07-24T07:34:40;19.10;99.90
16321;DHT22;8269;50.990;4.494;2023-07-24T07:37:06;19.10;99.90
16321;DHT22;8269;50.990;4.494;2023-07-24T07:39:32;19.20;99.90
16321;DHT22;8269;50.990;4.494;2023-07-24T07:41:58;19.40;99.90
16321;DHT22;8269;50.990;4.494;2023-07-24T07:44:24;19.60;99.90
16321;DHT22;8269;50.990;4.494;2023-07-24T07:46:49;19.80;99.90
16321;DHT22;8269;50.990;4.494;2023-07-24T07:49:15;19.80;99.90
16321;DHT22;8269;50.990;4.494;2023-07-24T07:51:42;19.80;99.90
16321;DHT22;8269;50.990;4.494;2023-07-24T07:54:08;19.90;99.90
16321;DHT22;8269;50.990;4.494;2023-07-24T07:56:34;20.30;99.90
16321;DHT22;8269;50.990;4.494;2023-07-24T07:59:00;20.90;99.90
16321;DHT22;8269;50.990;4.494;2023-07-24T08:01:26;21.40;99.90
16321;DHT22;8269;50.990;4.494;2023-07-24T08:03:52;21.70;99.90
16321;DHT22;8269;50.990;4.494;2023-07-24T08:06:17;21.80;99.90
16321;DHT22;8269;50.990;4.494;2023-07-24T08:08:43;21.70;99.90
16321;DHT22;8269;50.990;4.494;2023-07-24T08:11:10;21.70;99.90
16321;DHT22;8269;50.990;4.494;2023-07-24T08:13:35;21.70;99.90
16321;DHT22;8269;50.990;4.494;2023-07-24T08:16:02;21.80;99.90
16321;DHT22;8269;50.990;4.494;2023-07-24T08:18:30;21.70;99.90
16321;DHT22;8269;50.990;4.494;2023-07-24T08:20:56;21.50;99.90
16321;DHT22;8269;50.990;4.494;2023-07-24T08:23:23;21.60;99.90
16321;DHT22;8269;50.990;4.494;2023-07-24T08:25:55;21.80;99.90
16321;DHT22;8269;50.990;4.494;2023-07-24T08:28:21;21.80;99.90
16321;DHT22;8269;50.990;4.494;2023-07-24T08:30:56;21.80;99.90
16321;DHT22;8269;50.990;4.494;2023-07-24T08:33:23;21.60;99.90
16321;DHT22;8269;50.990;4.494;2023-07-24T08:36:04;21.10;99.90
16321;DHT22;8269;50.990;4.494;2023-07-24T08:38:30;20.90;99.90
16321;DHT22;8269;50.990;4.494;2023-07-24T08:41:12;20.90;99.90
16321;DHT22;8269;50.990;4.494;2023-07-24T08:43:42;20.80;99.90
16321;DHT22;8269;50.990;4.494;2023-07-24T08:46:09;20.50;99.90
16321;DHT22;8269;50.990;4.494;2023-07-24T08:48:39;20.40;99.90
16321;DHT22;8269;50.990;4.494;2023-07-24T08:51:11;20.50;99.90
16321;DHT22;8269;50.990;4.494;2023-07-24T08:53:39;20.50;99.90
16321;DHT22;8269;50.990;4.494;2023-07-24T08:56:10;20.40;99.90
16321;DHT22;8269;50.990;4.494;2023-07-24T08:58:36;20.20;99.90
16321;DHT22;8269;50.990;4.494;2023-07-24T09:01:03;20.10;99.90
16321;DHT22;8269;50.990;4.494;2023-07-24T09:03:31;20.00;99.90
16321;DHT22;8269;50.990;4.494;2023-07-24T09:05:57;19.90;99.90
16321;DHT22;8269;50.990;4.494;2023-07-24T09:08:33;19.90;99.90
16321;DHT22;8269;50.990;4.494;2023-07-24T09:11:00;19.80;99.90
16321;DHT22;8269;50.990;4.494;2023-07-24T09:13:28;19.70;99.90
16321;DHT22;8269;50.990;4.494;2023-07-24T09:15:53;19.50;99.90
16321;DHT22;8269;50.990;4.494;2023-07-24T09:18:20;19.50;99.90
16321;DHT22;8269;50.990;4.494;2023-07-24T09:20:46;19.30;99.90
16321;DHT22;8269;50.990;4.494;2023-07-24T09:23:13;19.20;99.90
16321;DHT22;8269;50.990;4.494;2023-07-24T09:25:40;19.20;99.90
16321;DHT22;8269;50.990;4.494;2023-07-24T09:28:14;19.30;99.90
16321;DHT22;8269;50.990;4.494;2023-07-24T09:30:41;19.30;99.90
16321;DHT22;8269;50.990;4.494;2023-07-24T09:33:14;19.00;99.90
16321;DHT22;8269;50.990;4.494;2023-07-24T09:36:07;19.40;99.90
16321;DHT22;8269;50.990;4.494;2023-07-24T09:38:36;19.40;99.90
16321;DHT22;8269;50.990;4.494;2023-07-24T09:41:03;19.40;99.90
16321;DHT22;8269;50.990;4.494;2023-07-24T09:43:30;19.40;99.90
16321;DHT22;8269;50.990;4.494;2023-07-24T09:45:56;19.40;99.90
16321;DHT22;8269;50.990;4.494;2023-07-24T09:48:25;19.50;99.90
16321;DHT22;8269;50.990;4.494;2023-07-24T09:51:00;19.50;99.90
16321;DHT22;8269;50.990;4.494;2023-07-24T09:53:39;19.50;99.90
16321;DHT22;8269;50.990;4.494;2023-07-24T09:56:09;19.50;99.90
16321;DHT22;8269;50.990;4.494;2023-07-24T09:58:41;18.70;99.90
16321;DHT22;8269;50.990;4.494;2023-07-24T10:01:09;19.40;99.90
16321;DHT22;8269;50.990;4.494;2023-07-24T10:03:39;19.30;99.90
16321;DHT22;8269;50.990;4.494;2023-07-24T10:06:27;19.20;99.90
16321;DHT22;8269;50.990;4.494;2023-07-24T10:09:14;19.20;99.90
16321;DHT22;8269;50.990;4.494;2023-07-24T10:11:41;18.70;99.90
16321;DHT22;8269;50.990;4.494;2023-07-24T10:14:07;19.10;99.90
16321;DHT22;8269;50.990;4.494;2023-07-24T10:16:35;19.00;99.90
16321;DHT22;8269;50.990;4.494;2023-07-24T10:19:01;19.00;99.90
16321;DHT22;8269;50.990;4.494;2023-07-24T10:21:37;19.00;99.90
16321;DHT22;8269;50.990;4.494;2023-07-24T10:24:03;18.90;99.90
16321;DHT22;8269;50.990;4.494;2023-07-24T10:26:28;18.80;99.90
16321;DHT22;8269;50.990;4.494;2023-07-24T10:28:54;18.80;99.90
16321;DHT22;8269;50.990;4.494;2023-07-24T10:31:21;18.90;99.90
16321;DHT22;8269;50.990;4.494;2023-07-24T10:33:48;18.80;99.90
16321;DHT22;8269;50.990;4.494;2023-07-24T10:36:17;18.90;99.90
16321;DHT22;8269;50.990;4.494;2023-07-24T10:38:45;18.90;99.90
16321;DHT22;8269;50.990;4.494;2023-07-24T10:41:12;19.20;99.90
16321;DHT22;8269;50.990;4.494;2023-07-24T10:43:46;19.50;99.90
16321;DHT22;8269;50.990;4.494;2023-07-24T10:46:13;19.60;99.90
16321;DHT22;8269;50.990;4.494;2023-07-24T10:48:44;19.90;99.90
16321;DHT22;8269;50.990;4.494;2023-07-24T10:51:10;20.20;99.90
16321;DHT22;8269;50.990;4.494;2023-07-24T10:53:42;20.40;99.90
16321;DHT22;8269;50.990;4.494;2023-07-24T10:56:08;20.40;99.90
16321;DHT22;8269;50.990;4.494;2023-07-24T10:58:33;20.70;99.90
16321;DHT22;8269;50.990;4.494;2023-07-24T11:01:07;20.80;99.90
16321;DHT22;8269;50.990;4.494;2023-07-24T11:03:36;21.20;99.90
16321;DHT22;8269;50.990;4.494;2023-07-24T11:06:03;21.60;99.90
16321;DHT22;8269;50.990;4.494;2023-07-24T11:08:29;21.90;99.90
16321;DHT22;8269;50.990;4.494;2023-07-24T11:10:57;22.00;99.90
16321;DHT22;8269;50.990;4.494;2023-07-24T11:13:27;22.00;99.90
16321;DHT22;8269;50.990;4.494;2023-07-24T11:15:55;21.60;99.90
16321;DHT22;8269;50.990;4.494;2023-07-24T11:18:21;21.40;99.90
16321;DHT22;8269;50.990;4.494;2023-07-24T11:20:53;21.50;99.90
16321;DHT22;8269;50.990;4.494;2023-07-24T11:23:19;21.50;99.90
16321;DHT22;8269;50.990;4.494;2023-07-24T11:25:46;21.50;99.90
16321;DHT22;8269;50.990;4.494;2023-07-24T11:30:53;21.40;99.90
16321;DHT22;8269;50.990;4.494;2023-07-24T11:33:20;21.20;99.90
16321;DHT22;8269;50.990;4.494;2023-07-24T11:35:46;21.20;99.90
16321;DHT22;8269;50.990;4.494;2023-07-24T11:38:13;21.00;99.90
16321;DHT22;8269;50.990;4.494;2023-07-24T11:40:41;20.90;99.90
16321;DHT22;8269;50.990;4.494;2023-07-24T11:43:20;20.90;99.90
16321;DHT22;8269;50.990;4.494;2023-07-24T11:45:47;21.20;99.90
16321;DHT22;8269;50.990;4.494;2023-07-24T11:48:24;21.30;99.90
16321;DHT22;8269;50.990;4.494;2023-07-24T11:50:52;21.40;99.90
16321;DHT22;8269;50.990;4.494;2023-07-24T11:53:30;21.50;99.90
16321;DHT22;8269;50.990;4.494;2023-07-24T11:55:58;21.60;99.90
16321;DHT22;8269;50.990;4.494;2023-07-24T11:58:31;21.50;99.90
16321;DHT22;8269;50.990;4.494;2023-07-24T12:00:56;21.50;99.90
16321;DHT22;8269;50.990;4.494;2023-07-24T12:03:27;21.50;99.90
16321;DHT22;8269;50.990;4.494;2023-07-24T12:05:55;21.70;99.90
16321;DHT22;8269;50.990;4.494;2023-07-24T12:08:34;21.90;99.90
16321;DHT22;8269;50.990;4.494;2023-07-24T12:11:01;22.00;99.90
16321;DHT22;8269;50.990;4.494;2023-07-24T12:13:27;21.90;99.90
16321;DHT22;8269;50.990;4.494;2023-07-24T12:15:54;21.90;99.90
16321;DHT22;8269;50.990;4.494;2023-07-24T12:18:19;21.80;99.90
16321;DHT22;8269;50.990;4.494;2023-07-24T12:20:46;21.80;99.90
16321;DHT22;8269;50.990;4.494;2023-07-24T12:23:12;21.90;99.90
16321;DHT22;8269;50.990;4.494;2023-07-24T12:25:38;22.00;99.90
16321;DHT22;8269;50.990;4.494;2023-07-24T12:28:04;22.10;99.90
16321;DHT22;8269;50.990;4.494;2023-07-24T12:30:29;22.10;99.90
16321;DHT22;8269;50.990;4.494;2023-07-24T12:33:03;22.10;99.90
16321;DHT22;8269;50.990;4.494;2023-07-24T12:35:40;22.10;99.90
16321;DHT22;8269;50.990;4.494;2023-07-24T12:38:05;22.10;99.90
16321;DHT22;8269;50.990;4.494;2023-07-24T12:40:31;22.10;99.90
16321;DHT22;8269;50.990;4.494;2023-07-24T12:42:57;22.00;99.90
16321;DHT22;8269;50.990;4.494;2023-07-24T12:45:22;22.00;99.90
16321;DHT22;8269;50.990;4.494;2023-07-24T12:47:48;21.90;99.90
16321;DHT22;8269;50.990;4.494;2023-07-24T12:50:15;21.90;99.90
16321;DHT22;8269;50.990;4.494;2023-07-24T12:52:41;22.00;99.90
16321;DHT22;8269;50.990;4.494;2023-07-24T12:55:07;22.20;99.90
16321;DHT22;8269;50.990;4.494;2023-07-24T12:57:33;22.30;99.90
16321;DHT22;8269;50.990;4.494;2023-07-24T13:00:00;22.40;99.90
16321;DHT22;8269;50.990;4.494;2023-07-24T13:02:26;22.40;99.90
16321;DHT22;8269;50.990;4.494;2023-07-24T13:04:52;22.40;99.90
16321;DHT22;8269;50.990;4.494;2023-07-24T13:07:18;22.40;99.90
16321;DHT22;8269;50.990;4.494;2023-07-24T13:09:44;22.40;99.90
16321;DHT22;8269;50.990;4.494;2023-07-24T13:12:09;22.30;99.90
16321;DHT22;8269;50.990;4.494;2023-07-24T13:14:35;22.40;99.90
16321;DHT22;8269;50.990;4.494;2023-07-24T13:17:02;22.50;99.90
16321;DHT22;8269;50.990;4.494;2023-07-24T13:19:28;22.50;99.90
16321;DHT22;8269;50.990;4.494;2023-07-24T13:21:54;22.60;99.90
16321;DHT22;8269;50.990;4.494;2023-07-24T13:24:20;22.70;99.90
16321;DHT22;8269;50.990;4.494;2023-07-24T13:26:46;22.90;99.90
16321;DHT22;8269;50.990;4.494;2023-07-24T13:29:12;23.10;99.90
16321;DHT22;8269;50.990;4.494;2023-07-24T13:31:38;23.10;99.90
16321;DHT22;8269;50.990;4.494;2023-07-24T13:34:09;23.10;99.90
16321;DHT22;8269;50.990;4.494;2023-07-24T13:36:34;22.90;99.90
16321;DHT22;8269;50.990;4.494;2023-07-24T13:39:01;22.70;99.90
16321;DHT22;8269;50.990;4.494;2023-07-24T13:41:27;22.30;99.90
16321;DHT22;8269;50.990;4.494;2023-07-24T13:43:53;22.00;99.90
16321;DHT22;8269;50.990;4.494;2023-07-24T13:46:20;21.80;99.90
16321;DHT22;8269;50.990;4.494;2023-07-24T13:48:45;21.60;99.90
16321;DHT22;8269;50.990;4.494;2023-07-24T13:51:12;21.70;99.90
16321;DHT22;8269;50.990;4.494;2023-07-24T13:53:39;21.80;99.90
16321;DHT22;8269;50.990;4.494;2023-07-24T13:56:05;22.00;99.90
16321;DHT22;8269;50.990;4.494;2023-07-24T13:58:30;22.20;99.90
16321;DHT22;8269;50.990;4.494;2023-07-24T14:00:56;22.30;99.90
16321;DHT22;8269;50.990;4.494;2023-07-24T14:03:22;22.20;99.90
16321;DHT22;8269;50.990;4.494;2023-07-24T14:05:51;22.20;99.90
16321;DHT22;8269;50.990;4.494;2023-07-24T14:08:17;22.30;99.90
16321;DHT22;8269;50.990;4.494;2023-07-24T14:10:42;22.50;99.90
16321;DHT22;8269;50.990;4.494;2023-07-24T14:13:08;22.50;99.90
16321;DHT22;8269;50.990;4.494;2023-07-24T14:15:35;22.10;99.90
16321;DHT22;8269;50.990;4.494;2023-07-24T14:18:00;21.80;99.90
16321;DHT22;8269;50.990;4.494;2023-07-24T14:20:26;21.80;99.90
16321;DHT22;8269;50.990;4.494;2023-07-24T14:22:52;21.50;99.90
16321;DHT22;8269;50.990;4.494;2023-07-24T14:25:17;21.30;99.90
16321;DHT22;8269;50.990;4.494;2023-07-24T14:27:43;20.80;99.90
16321;DHT22;8269;50.990;4.494;2023-07-24T14:30:09;20.40;99.90
16321;DHT22;8269;50.990;4.494;2023-07-24T14:32:36;20.00;99.90
16321;DHT22;8269;50.990;4.494;2023-07-24T14:35:02;19.60;99.90
16321;DHT22;8269;50.990;4.494;2023-07-24T14:37:27;19.30;99.90
16321;DHT22;8269;50.990;4.494;2023-07-24T14:39:53;19.10;99.90
16321;DHT22;8269;50.990;4.494;2023-07-24T14:42:19;18.90;99.90
16321;DHT22;8269;50.990;4.494;2023-07-24T14:44:44;18.60;99.90
16321;DHT22;8269;50.990;4.494;2023-07-24T14:47:11;18.50;99.90
16321;DHT22;8269;50.990;4.494;2023-07-24T14:49:38;18.30;99.90
16321;DHT22;8269;50.990;4.494;2023-07-24T14:52:04;18.40;99.90
16321;DHT22;8269;50.990;4.494;2023-07-24T14:54:30;18.30;99.90
16321;DHT22;8269;50.990;4.494;2023-07-24T14:56:57;18.30;99.90
16321;DHT22;8269;50.990;4.494;2023-07-24T14:59:23;18.30;99.90
16321;DHT22;8269;50.990;4.494;2023-07-24T15:01:48;18.20;99.90
16321;DHT22;8269;50.990;4.494;2023-07-24T15:04:14;18.00;99.90
16321;DHT22;8269;50.990;4.494;2023-07-24T15:06:40;18.00;99.90
16321;DHT22;8269;50.990;4.494;2023-07-24T15:09:05;18.00;99.90
16321;DHT22;8269;50.990;4.494;2023-07-24T15:11:31;18.00;99.90
16321;DHT22;8269;50.990;4.494;2023-07-24T15:13:57;17.90;99.90
16321;DHT22;8269;50.990;4.494;2023-07-24T15:16:24;17.90;99.90
16321;DHT22;8269;50.990;4.494;2023-07-24T15:18:49;18.00;99.90
16321;DHT22;8269;50.990;4.494;2023-07-24T15:21:15;17.90;99.90
16321;DHT22;8269;50.990;4.494;2023-07-24T15:23:41;17.90;99.90
16321;DHT22;8269;50.990;4.494;2023-07-24T15:26:07;17.90;99.90
16321;DHT22;8269;50.990;4.494;2023-07-24T15:28:33;17.80;99.90
16321;DHT22;8269;50.990;4.494;2023-07-24T15:30:59;17.70;99.90
16321;DHT22;8269;50.990;4.494;2023-07-24T15:33:24;17.60;99.90
16321;DHT22;8269;50.990;4.494;2023-07-24T15:35:50;17.80;99.90
16321;DHT22;8269;50.990;4.494;2023-07-24T15:38:16;18.20;99.90
16321;DHT22;8269;50.990;4.494;2023-07-24T15:40:41;18.50;99.90
16321;DHT22;8269;50.990;4.494;2023-07-24T15:43:07;18.90;99.90
16321;DHT22;8269;50.990;4.494;2023-07-24T15:45:33;19.10;99.90
16321;DHT22;8269;50.990;4.494;2023-07-24T15:48:02;19.30;99.90
16321;DHT22;8269;50.990;4.494;2023-07-24T15:50:28;19.50;99.90